createdAt,value
2023-03-11T00:03:00.429Z,94.28
2023-03-11T00:08:04.827Z,92.55
2023-03-11T00:13:08.760Z,93.82
2023-03-11T00:18:11.706Z,94.09
2023-03-11T00:23:16.216Z,94.30
2023-03-11T00:28:19.293Z,94.48
2023-03-11T00:33:22.291Z,95.18
2023-03-11T00:38:25.234Z,95.13
2023-03-11T00:43:28.452Z,96.70
2023-03-11T00:48:31.439Z,94.59
2023-03-11T00:53:34.551Z,94.01
2023-03-11T00:58:37.458Z,92.85
2023-03-11T01:03:41.725Z,92.70
2023-03-11T01:08:46.550Z,94.63
2023-03-11T01:13:49.409Z,93.65
2023-03-11T01:18:52.299Z,93.56
2023-03-11T01:23:55.353Z,95.18
2023-03-11T01:28:58.058Z,98.10
2023-03-11T01:34:00.872Z,97.46
2023-03-11T01:39:04.589Z,95.73
2023-03-11T01:44:07.993Z,94.26
2023-03-11T01:49:13.513Z,100.00
2023-03-11T01:54:24.585Z,100.00
2023-03-11T01:59:38.214Z,99.36
2023-03-11T02:04:42.611Z,96.50
2023-03-11T02:09:45.600Z,95.77
2023-03-11T02:14:51.810Z,91.94
2023-03-11T02:20:12.624Z,92.88
2023-03-11T02:25:16.417Z,95.55
2023-03-11T02:30:22.693Z,97.61
2023-03-11T02:35:26.252Z,97.69
2023-03-11T02:40:31.158Z,98.74
2023-03-11T02:45:35.054Z,99.73
2023-03-11T02:50:38.525Z,99.90
2023-03-11T02:55:41.727Z,97.92
2023-03-11T03:00:44.526Z,97.61
2023-03-11T03:05:48.386Z,100.00
2023-03-11T03:10:51.607Z,100.00
2023-03-11T03:15:55.208Z,100.00
2023-03-11T03:20:58.141Z,100.00
2023-03-11T03:26:01.848Z,100.00
2023-03-11T03:31:06.885Z,100.00
2023-03-11T03:36:14.655Z,100.00
2023-03-11T03:41:21.413Z,100.00
2023-03-11T03:46:25.809Z,100.00
2023-03-11T03:51:32.595Z,100.00
2023-03-11T03:56:44.405Z,100.00
2023-03-11T04:01:48.125Z,100.00
2023-03-11T04:06:52.069Z,100.00
2023-03-11T04:11:55.599Z,100.00
2023-03-11T04:16:59.001Z,100.00
2023-03-11T04:22:02.994Z,100.00
2023-03-11T04:27:06.294Z,99.45
2023-03-11T04:32:10.557Z,97.89
2023-03-11T04:37:15.363Z,99.18
2023-03-11T04:42:19.526Z,99.64
2023-03-11T04:47:23.596Z,99.95
2023-03-11T04:52:27.289Z,100.00
2023-03-11T04:57:30.684Z,99.05
2023-03-11T05:02:34.515Z,97.18
2023-03-11T05:07:38.460Z,97.55
2023-03-11T05:12:42.774Z,98.42
2023-03-11T05:17:46.904Z,100.00
2023-03-11T05:22:50.135Z,100.00
2023-03-11T05:27:53.609Z,100.00
2023-03-11T05:32:56.797Z,100.00
2023-03-11T05:38:00.704Z,100.00
2023-03-11T05:43:06.207Z,100.00
2023-03-11T05:48:14.114Z,100.00
2023-03-11T05:53:17.067Z,100.00
2023-03-11T05:58:20.052Z,100.00
2023-03-11T06:03:24.783Z,100.00
2023-03-11T06:08:28.034Z,100.00
2023-03-11T06:13:31.103Z,99.09
2023-03-11T06:18:34.269Z,97.24
2023-03-11T06:23:37.314Z,96.93
2023-03-11T06:28:40.251Z,97.36
2023-03-11T06:33:43.759Z,97.47
2023-03-11T06:38:47.006Z,96.94
2023-03-11T06:43:51.048Z,95.11
2023-03-11T06:48:54.917Z,93.68
2023-03-11T06:53:59.638Z,92.16
2023-03-11T06:59:03.922Z,89.44
2023-03-11T07:04:11.028Z,87.75
2023-03-11T07:09:17.151Z,87.93
2023-03-11T07:14:22.995Z,86.68
2023-03-11T07:19:30.130Z,85.50
2023-03-11T07:24:33.111Z,84.20
2023-03-11T07:29:35.908Z,83.46
2023-03-11T07:34:38.794Z,80.79
2023-03-11T07:39:41.921Z,77.83
2023-03-11T07:44:44.874Z,76.07
2023-03-11T07:49:48.004Z,77.50
2023-03-11T07:54:51.342Z,77.81
2023-03-11T07:59:54.283Z,76.67
2023-03-11T08:04:57.571Z,75.73
2023-03-11T08:10:00.922Z,72.55
2023-03-11T08:15:04.209Z,71.91
2023-03-11T08:20:09.253Z,70.79
2023-03-11T08:25:12.292Z,71.97
2023-03-11T08:30:15.812Z,70.22
2023-03-11T08:35:18.762Z,70.21
2023-03-11T08:40:21.740Z,66.19
2023-03-11T08:45:24.812Z,65.28
2023-03-11T08:50:27.978Z,65.21
2023-03-11T08:55:31.065Z,65.34
2023-03-11T09:00:34.093Z,62.59
2023-03-11T09:05:37.618Z,58.75
2023-03-11T09:10:40.492Z,58.61
2023-03-11T09:15:43.268Z,58.68
2023-03-11T09:20:46.694Z,57.97
2023-03-11T09:25:49.642Z,57.53
2023-03-11T09:30:52.712Z,58.40
2023-03-11T09:35:55.618Z,59.47
2023-03-11T09:41:04.437Z,59.16
2023-03-11T09:46:29.759Z,58.96
2023-03-11T09:51:38.522Z,58.80
2023-03-11T09:56:44.551Z,58.70
2023-03-11T10:01:51.132Z,59.32
2023-03-11T10:06:54.257Z,60.46
2023-03-11T10:12:09.263Z,59.83
2023-03-11T10:17:21.086Z,61.10
2023-03-11T10:22:47.338Z,61.75
2023-03-11T10:27:55.901Z,63.19
2023-03-11T10:33:22.012Z,61.72
2023-03-11T10:38:49.553Z,61.47
2023-03-11T10:44:03.547Z,61.78
2023-03-11T10:49:13.965Z,60.41
2023-03-11T10:54:22.896Z,61.25
2023-03-11T10:59:27.833Z,61.84
2023-03-11T11:04:36.247Z,63.38
2023-03-11T11:09:39.105Z,63.42
2023-03-11T11:14:52.952Z,64.10
2023-03-11T11:19:58.395Z,64.64
2023-03-11T11:25:01.336Z,68.83
2023-03-11T11:30:11.533Z,70.00
2023-03-11T11:35:17.166Z,71.02
2023-03-11T11:40:29.325Z,71.88
2023-03-11T11:45:40.959Z,71.30
2023-03-11T11:50:54.489Z,71.39
2023-03-11T11:55:57.542Z,71.09
2023-03-11T12:01:20.204Z,70.55
2023-03-11T12:06:39.549Z,69.49
2023-03-11T12:11:51.922Z,69.95
2023-03-11T12:17:03.899Z,68.69
2023-03-11T12:22:16.172Z,68.97
2023-03-11T12:27:35.517Z,68.70
2023-03-11T12:32:44.086Z,69.09
2023-03-11T12:37:55.532Z,69.65
2023-03-11T12:42:58.678Z,69.73
2023-03-11T12:48:30.952Z,69.16
2023-03-11T12:53:50.395Z,69.57
2023-03-11T12:59:15.442Z,67.82
2023-03-11T13:04:29.350Z,68.27
2023-03-11T13:09:32.168Z,68.44
2023-03-11T13:14:35.390Z,68.41
2023-03-11T13:19:48.316Z,69.12
2023-03-11T13:24:51.804Z,69.59
2023-03-11T13:30:10.616Z,70.54
2023-03-11T13:35:38.099Z,72.60
2023-03-11T13:40:46.314Z,72.79
2023-03-11T13:45:57.262Z,73.63
2023-03-11T13:51:00.142Z,74.04
2023-03-11T13:56:03.179Z,74.54
2023-03-11T14:01:07.107Z,74.65
2023-03-11T14:06:18.014Z,75.61
2023-03-11T14:11:32.182Z,75.32
2023-03-11T14:16:44.573Z,76.49
2023-03-11T14:21:52.155Z,76.75
2023-03-11T14:26:57.027Z,76.88
2023-03-11T14:32:00.131Z,77.61
2023-03-11T14:37:04.385Z,77.83
2023-03-11T14:42:26.771Z,78.60
2023-03-11T14:47:49.686Z,79.17
2023-03-11T14:53:36.180Z,79.31
2023-03-11T14:59:01.628Z,79.82
2023-03-11T15:04:38.225Z,80.42
2023-03-11T15:09:42.205Z,80.94
2023-03-11T15:14:52.125Z,81.12
2023-03-11T15:19:59.041Z,81.86
2023-03-11T15:25:04.431Z,83.07
2023-03-11T15:30:21.226Z,84.18
2023-03-11T15:35:31.428Z,84.19
2023-03-11T15:40:44.933Z,84.93
2023-03-11T15:45:49.444Z,84.84
2023-03-11T15:50:57.707Z,84.82
2023-03-11T15:56:14.034Z,85.81
2023-03-11T16:01:18.685Z,86.02
2023-03-11T16:06:24.900Z,85.85
2023-03-11T16:11:28.202Z,84.96
2023-03-11T16:16:32.530Z,84.73
2023-03-11T16:21:43.366Z,84.77
2023-03-11T16:26:46.441Z,84.77
2023-03-11T16:31:49.545Z,84.82
2023-03-11T16:36:52.261Z,85.35
2023-03-11T16:41:54.989Z,86.08
2023-03-11T16:46:57.893Z,86.89
2023-03-11T16:52:00.769Z,88.06
2023-03-11T16:57:03.640Z,89.03
2023-03-11T17:02:06.952Z,89.78
2023-03-11T17:07:10.098Z,89.74
2023-03-11T17:12:16.098Z,91.01
2023-03-11T17:17:20.157Z,91.24
2023-03-11T17:22:23.169Z,91.24
2023-03-11T17:27:26.562Z,91.73
2023-03-11T17:32:29.962Z,92.30
2023-03-11T17:37:33.257Z,92.22
2023-03-11T17:42:40.056Z,92.43
2023-03-11T17:47:43.621Z,93.40
2023-03-11T17:52:47.675Z,92.98
2023-03-11T17:57:50.461Z,93.32
2023-03-11T18:02:53.410Z,93.61
2023-03-11T18:07:56.240Z,94.02
2023-03-11T18:12:59.119Z,93.76
2023-03-11T18:18:02.372Z,94.30
2023-03-11T18:23:05.837Z,93.63
2023-03-11T18:28:08.905Z,93.47
2023-03-11T18:33:11.567Z,92.64
2023-03-11T18:38:14.462Z,93.24
2023-03-11T18:43:17.402Z,93.87
2023-03-11T18:48:20.178Z,93.54
2023-03-11T18:53:25.396Z,93.79
2023-03-11T18:58:28.946Z,93.57
2023-03-11T19:03:31.885Z,92.00
2023-03-11T19:08:36.051Z,90.36
2023-03-11T19:13:47.112Z,88.77
2023-03-11T19:18:51.830Z,88.23
2023-03-11T19:23:56.790Z,88.45
2023-03-11T19:28:59.596Z,88.31
2023-03-11T19:34:02.544Z,89.11
2023-03-11T19:39:05.712Z,89.18
2023-03-11T19:44:08.546Z,89.48
2023-03-11T19:49:11.495Z,90.55
2023-03-11T19:54:16.570Z,89.93
2023-03-11T19:59:19.612Z,90.01
2023-03-11T20:04:22.574Z,90.56
2023-03-11T20:09:25.614Z,89.53
2023-03-11T20:14:28.370Z,89.16
2023-03-11T20:19:31.247Z,90.63
2023-03-11T20:24:34.486Z,89.87
2023-03-11T20:29:37.366Z,89.33
2023-03-11T20:34:40.149Z,90.09
2023-03-11T20:39:43.185Z,89.92
2023-03-11T20:44:46.338Z,89.36
2023-03-11T20:49:49.347Z,89.23
2023-03-11T20:54:52.295Z,88.86
2023-03-11T20:59:55.123Z,88.60
2023-03-11T21:04:58.012Z,87.71
2023-03-11T21:10:02.575Z,87.98
2023-03-11T21:15:08.543Z,88.33
2023-03-11T21:20:12.302Z,88.67
2023-03-11T21:25:15.190Z,87.82
2023-03-11T21:30:18.419Z,87.95
2023-03-11T21:35:21.436Z,87.01
2023-03-11T21:40:24.458Z,86.96
2023-03-11T21:45:28.217Z,86.71
2023-03-11T21:50:33.310Z,87.45
2023-03-11T21:55:36.480Z,87.83
2023-03-11T22:00:40.426Z,86.83
2023-03-11T22:05:43.490Z,86.34
2023-03-11T22:10:46.658Z,85.64
2023-03-11T22:15:49.737Z,86.21
2023-03-11T22:20:52.835Z,85.59
2023-03-11T22:25:55.989Z,85.35
2023-03-11T22:30:59.090Z,85.04
2023-03-11T22:36:05.317Z,85.81
2023-03-11T22:41:08.501Z,87.37
2023-03-11T22:46:11.655Z,87.67
2023-03-11T22:51:14.546Z,87.50
2023-03-11T22:56:18.632Z,89.21
2023-03-11T23:01:21.621Z,90.09
2023-03-11T23:06:24.742Z,90.96
2023-03-11T23:11:27.774Z,90.62
2023-03-11T23:16:31.656Z,91.61
2023-03-11T23:21:35.838Z,91.90
2023-03-11T23:26:38.902Z,92.35
2023-03-11T23:31:41.857Z,91.85
2023-03-11T23:36:44.714Z,93.42
2023-03-11T23:41:47.565Z,93.74
2023-03-11T23:46:50.497Z,94.09
2023-03-11T23:51:54.198Z,94.37
2023-03-11T23:56:57.537Z,94.69
